Aérodrome :
LOGIN :

S'inscrire | Disclaimer

   EN    FR    IT 

 










Légende :    VFR   VFR Marginal   IFR   IFR Intensif   IFR Très Intensif
Visi : 
Plafond : 
>= 8 km
>= 3000ft
5 à 8 km
1000 à 3000 ft
1500m à 5 km
500 à 1000 ft
800 à 1500m
200 à 500 ft
< 800m
< 200 ft
Symboles :   Orages  Brouillard  Fortes neiges  Fortes précipitations  Vent > 20 kt
SIGMETs :   Divers  Orages  Givrage  Turbulence  Onde Orograph.  Cendres Volcan.







- Altitude de l'aérodrome : 915 ft
- Code IATA : LUG


LSZA - Lugano

DERNIER METAR :
  • 190320Z AUTO VRB01KT CAVOK 19/18 Q1015

METARs EXPIRÉS :
  • 190250Z AUTO VRB02KT 9999 NSC 19/18 Q1015
  • 190220Z AUTO VRB02KT 9999 FEW006 18/18 Q1015
  • 190150Z AUTO VRB02KT CAVOK 18/18 Q1015
  • 190120Z AUTO VRB01KT 9999 NCD 18/18 Q1015
  • 190050Z AUTO VRB02KT 9999 BKN190 //////TCU 19/18 Q1015 RETS

TAF TAF LSZA
Valide du 19 à 03h jusqu'au 19 à 12h UTC


190225Z 1903/1912 VRB03KT 9999 FEW006
ATIS : +41 22 417 40 88
Pas de NOTAMs connus pour ce terrain.



MET'MAP, la Météo Aéronautique d'un coup d'oeil ! - Copyright ORBIFLY Décembre 2007 - Disclaimer

ORBIFLY MET'MAP TEAM :

Programmation & Développement : Alexandra Zaïnal
Conception & Développement : Baudouin d'Aumeries
Co-Programmation & Développement : Marc-Olivier Méhu
Soutien technique & logistique : Manuel Goepfert

Contact : metmap@orbifly.com




SOURCES & CREDITS :

   NOAA